sensor_id;sensor_type;location;lat;lon;timestamp;P1;durP1;ratioP1;P2;durP2;ratioP2
15295;SDS011;7749;49.964;7.890;2024-02-26T00:02:03;2.00;;;1.50;;
15295;SDS011;7749;49.964;7.890;2024-02-26T00:04:30;2.00;;;1.40;;
15295;SDS011;7749;49.964;7.890;2024-02-26T00:06:58;2.13;;;1.80;;
15295;SDS011;7749;49.964;7.890;2024-02-26T00:09:26;2.40;;;1.50;;
15295;SDS011;7749;49.964;7.890;2024-02-26T00:11:53;1.60;;;1.30;;
15295;SDS011;7749;49.964;7.890;2024-02-26T00:14:22;1.70;;;1.60;;
15295;SDS011;7749;49.964;7.890;2024-02-26T00:16:49;1.80;;;1.60;;
15295;SDS011;7749;49.964;7.890;2024-02-26T00:19:17;2.50;;;1.80;;
15295;SDS011;7749;49.964;7.890;2024-02-26T00:21:44;2.87;;;1.73;;
15295;SDS011;7749;49.964;7.890;2024-02-26T00:24:12;2.27;;;1.93;;
15295;SDS011;7749;49.964;7.890;2024-02-26T00:26:39;2.67;;;1.80;;
15295;SDS011;7749;49.964;7.890;2024-02-26T00:29:07;3.20;;;1.73;;
15295;SDS011;7749;49.964;7.890;2024-02-26T00:31:35;1.80;;;1.70;;
15295;SDS011;7749;49.964;7.890;2024-02-26T00:34:04;2.57;;;1.67;;
15295;SDS011;7749;49.964;7.890;2024-02-26T00:36:31;1.67;;;1.57;;
15295;SDS011;7749;49.964;7.890;2024-02-26T00:38:59;1.97;;;1.77;;
15295;SDS011;7749;49.964;7.890;2024-02-26T00:41:26;3.20;;;1.70;;
15295;SDS011;7749;49.964;7.890;2024-02-26T00:43:53;2.27;;;1.60;;
15295;SDS011;7749;49.964;7.890;2024-02-26T00:46:21;2.43;;;1.80;;
15295;SDS011;7749;49.964;7.890;2024-02-26T00:48:48;1.93;;;1.60;;
15295;SDS011;7749;49.964;7.890;2024-02-26T00:51:16;2.53;;;1.40;;
15295;SDS011;7749;49.964;7.890;2024-02-26T00:53:44;2.13;;;1.67;;
15295;SDS011;7749;49.964;7.890;2024-02-26T00:56:11;2.60;;;1.60;;
15295;SDS011;7749;49.964;7.890;2024-02-26T00:58:39;2.70;;;1.70;;
15295;SDS011;7749;49.964;7.890;2024-02-26T01:01:06;2.10;;;1.70;;
15295;SDS011;7749;49.964;7.890;2024-02-26T01:03:34;2.87;;;1.77;;
15295;SDS011;7749;49.964;7.890;2024-02-26T01:06:01;2.03;;;1.60;;
15295;SDS011;7749;49.964;7.890;2024-02-26T01:08:29;1.87;;;1.67;;
15295;SDS011;7749;49.964;7.890;2024-02-26T01:10:58;3.17;;;1.67;;
15295;SDS011;7749;49.964;7.890;2024-02-26T01:13:25;2.47;;;1.57;;
15295;SDS011;7749;49.964;7.890;2024-02-26T01:15:53;3.57;;;1.80;;
15295;SDS011;7749;49.964;7.890;2024-02-26T01:18:20;4.70;;;1.60;;
15295;SDS011;7749;49.964;7.890;2024-02-26T01:20:49;1.80;;;1.33;;
15295;SDS011;7749;49.964;7.890;2024-02-26T01:23:16;2.50;;;1.50;;
15295;SDS011;7749;49.964;7.890;2024-02-26T01:25:44;1.87;;;1.40;;
15295;SDS011;7749;49.964;7.890;2024-02-26T01:28:13;1.97;;;1.50;;
15295;SDS011;7749;49.964;7.890;2024-02-26T01:30:40;2.37;;;1.40;;
15295;SDS011;7749;49.964;7.890;2024-02-26T01:33:07;1.97;;;1.57;;
15295;SDS011;7749;49.964;7.890;2024-02-26T01:35:35;1.57;;;1.30;;
15295;SDS011;7749;49.964;7.890;2024-02-26T01:38:03;1.80;;;1.50;;
15295;SDS011;7749;49.964;7.890;2024-02-26T01:40:30;1.70;;;1.50;;
15295;SDS011;7749;49.964;7.890;2024-02-26T01:42:58;1.60;;;1.47;;
15295;SDS011;7749;49.964;7.890;2024-02-26T01:45:27;1.50;;;1.30;;
15295;SDS011;7749;49.964;7.890;2024-02-26T01:47:55;2.30;;;1.47;;
15295;SDS011;7749;49.964;7.890;2024-02-26T01:50:24;1.53;;;1.40;;
15295;SDS011;7749;49.964;7.890;2024-02-26T01:52:51;1.97;;;1.60;;
15295;SDS011;7749;49.964;7.890;2024-02-26T01:55:20;1.63;;;1.50;;
15295;SDS011;7749;49.964;7.890;2024-02-26T01:57:50;2.13;;;1.50;;
15295;SDS011;7749;49.964;7.890;2024-02-26T02:00:19;1.77;;;1.40;;
15295;SDS011;7749;49.964;7.890;2024-02-26T02:02:49;1.70;;;1.60;;
15295;SDS011;7749;49.964;7.890;2024-02-26T02:05:17;1.70;;;1.23;;
15295;SDS011;7749;49.964;7.890;2024-02-26T02:07:48;2.97;;;1.50;;
15295;SDS011;7749;49.964;7.890;2024-02-26T02:10:16;1.97;;;1.50;;
15295;SDS011;7749;49.964;7.890;2024-02-26T02:12:45;1.73;;;1.60;;
15295;SDS011;7749;49.964;7.890;2024-02-26T02:15:12;1.57;;;1.47;;
15295;SDS011;7749;49.964;7.890;2024-02-26T02:17:40;1.63;;;1.30;;
15295;SDS011;7749;49.964;7.890;2024-02-26T02:20:08;2.03;;;1.73;;
15295;SDS011;7749;49.964;7.890;2024-02-26T02:22:42;2.07;;;1.57;;
15295;SDS011;7749;49.964;7.890;2024-02-26T02:25:10;2.07;;;1.57;;
15295;SDS011;7749;49.964;7.890;2024-02-26T02:27:38;2.40;;;1.50;;
15295;SDS011;7749;49.964;7.890;2024-02-26T02:30:07;2.77;;;1.67;;
15295;SDS011;7749;49.964;7.890;2024-02-26T02:32:37;4.17;;;1.80;;
15295;SDS011;7749;49.964;7.890;2024-02-26T02:35:07;2.00;;;1.80;;
15295;SDS011;7749;49.964;7.890;2024-02-26T02:37:34;2.83;;;1.80;;
15295;SDS011;7749;49.964;7.890;2024-02-26T02:40:02;4.00;;;1.90;;
15295;SDS011;7749;49.964;7.890;2024-02-26T02:42:31;3.80;;;1.70;;
15295;SDS011;7749;49.964;7.890;2024-02-26T02:44:58;4.03;;;1.70;;
15295;SDS011;7749;49.964;7.890;2024-02-26T02:47:26;2.13;;;1.80;;
15295;SDS011;7749;49.964;7.890;2024-02-26T02:49:53;6.90;;;2.27;;
15295;SDS011;7749;49.964;7.890;2024-02-26T02:52:21;4.77;;;2.43;;
15295;SDS011;7749;49.964;7.890;2024-02-26T02:54:48;3.30;;;2.33;;
15295;SDS011;7749;49.964;7.890;2024-02-26T02:57:16;2.63;;;2.10;;
15295;SDS011;7749;49.964;7.890;2024-02-26T02:59:43;3.03;;;1.93;;
15295;SDS011;7749;49.964;7.890;2024-02-26T03:02:11;2.90;;;1.90;;
15295;SDS011;7749;49.964;7.890;2024-02-26T03:04:39;2.70;;;2.10;;
15295;SDS011;7749;49.964;7.890;2024-02-26T03:07:06;4.10;;;2.80;;
15295;SDS011;7749;49.964;7.890;2024-02-26T03:09:35;4.60;;;3.20;;
15295;SDS011;7749;49.964;7.890;2024-02-26T03:12:03;4.83;;;2.87;;
15295;SDS011;7749;49.964;7.890;2024-02-26T03:14:30;2.90;;;2.60;;
15295;SDS011;7749;49.964;7.890;2024-02-26T03:16:58;5.67;;;2.47;;
15295;SDS011;7749;49.964;7.890;2024-02-26T03:19:25;3.43;;;2.63;;
15295;SDS011;7749;49.964;7.890;2024-02-26T03:21:53;3.20;;;2.33;;
15295;SDS011;7749;49.964;7.890;2024-02-26T03:24:20;3.90;;;2.30;;
15295;SDS011;7749;49.964;7.890;2024-02-26T03:26:48;4.50;;;2.30;;
15295;SDS011;7749;49.964;7.890;2024-02-26T03:29:15;2.97;;;2.30;;
15295;SDS011;7749;49.964;7.890;2024-02-26T03:31:42;3.70;;;2.13;;
15295;SDS011;7749;49.964;7.890;2024-02-26T03:34:10;2.30;;;2.00;;
15295;SDS011;7749;49.964;7.890;2024-02-26T03:36:39;2.73;;;2.13;;
15295;SDS011;7749;49.964;7.890;2024-02-26T03:39:07;2.97;;;2.03;;
15295;SDS011;7749;49.964;7.890;2024-02-26T03:41:35;4.23;;;2.50;;
15295;SDS011;7749;49.964;7.890;2024-02-26T03:44:02;6.67;;;3.80;;
15295;SDS011;7749;49.964;7.890;2024-02-26T03:46:30;4.67;;;3.40;;
15295;SDS011;7749;49.964;7.890;2024-02-26T03:48:57;4.13;;;3.53;;
15295;SDS011;7749;49.964;7.890;2024-02-26T03:51:25;3.50;;;3.00;;
15295;SDS011;7749;49.964;7.890;2024-02-26T03:53:55;3.70;;;2.87;;
15295;SDS011;7749;49.964;7.890;2024-02-26T03:56:22;4.70;;;2.70;;
15295;SDS011;7749;49.964;7.890;2024-02-26T03:58:50;2.83;;;2.10;;
15295;SDS011;7749;49.964;7.890;2024-02-26T04:01:17;3.40;;;2.40;;
15295;SDS011;7749;49.964;7.890;2024-02-26T04:03:44;5.90;;;2.47;;
15295;SDS011;7749;49.964;7.890;2024-02-26T04:06:12;2.80;;;2.20;;
15295;SDS011;7749;49.964;7.890;2024-02-26T04:08:44;3.20;;;2.40;;
15295;SDS011;7749;49.964;7.890;2024-02-26T04:11:12;4.17;;;2.37;;
15295;SDS011;7749;49.964;7.890;2024-02-26T04:13:40;2.80;;;2.33;;
15295;SDS011;7749;49.964;7.890;2024-02-26T04:16:07;2.77;;;2.07;;
15295;SDS011;7749;49.964;7.890;2024-02-26T04:18:34;2.30;;;1.90;;
15295;SDS011;7749;49.964;7.890;2024-02-26T04:21:02;2.67;;;2.00;;
15295;SDS011;7749;49.964;7.890;2024-02-26T04:23:34;4.73;;;2.27;;
15295;SDS011;7749;49.964;7.890;2024-02-26T04:26:01;3.23;;;2.37;;
15295;SDS011;7749;49.964;7.890;2024-02-26T04:28:29;2.40;;;2.20;;
15295;SDS011;7749;49.964;7.890;2024-02-26T04:30:56;3.07;;;2.50;;
15295;SDS011;7749;49.964;7.890;2024-02-26T04:33:23;3.53;;;2.70;;
15295;SDS011;7749;49.964;7.890;2024-02-26T04:35:51;5.43;;;2.80;;
15295;SDS011;7749;49.964;7.890;2024-02-26T04:38:18;3.83;;;2.60;;
15295;SDS011;7749;49.964;7.890;2024-02-26T04:40:46;2.60;;;2.40;;
15295;SDS011;7749;49.964;7.890;2024-02-26T04:43:13;4.13;;;2.50;;
15295;SDS011;7749;49.964;7.890;2024-02-26T04:45:41;2.67;;;2.43;;
15295;SDS011;7749;49.964;7.890;2024-02-26T04:48:08;2.77;;;2.57;;
15295;SDS011;7749;49.964;7.890;2024-02-26T04:50:36;2.70;;;2.50;;
15295;SDS011;7749;49.964;7.890;2024-02-26T04:53:03;3.40;;;2.53;;
15295;SDS011;7749;49.964;7.890;2024-02-26T04:55:30;6.67;;;2.73;;
15295;SDS011;7749;49.964;7.890;2024-02-26T04:57:58;5.27;;;2.90;;
15295;SDS011;7749;49.964;7.890;2024-02-26T05:00:25;4.07;;;3.00;;
15295;SDS011;7749;49.964;7.890;2024-02-26T05:02:53;3.13;;;2.70;;
15295;SDS011;7749;49.964;7.890;2024-02-26T05:05:20;4.53;;;2.70;;
15295;SDS011;7749;49.964;7.890;2024-02-26T05:07:47;4.27;;;2.93;;
15295;SDS011;7749;49.964;7.890;2024-02-26T05:10:14;2.57;;;2.33;;
15295;SDS011;7749;49.964;7.890;2024-02-26T05:12:42;3.00;;;2.70;;
15295;SDS011;7749;49.964;7.890;2024-02-26T05:15:09;3.80;;;3.00;;
15295;SDS011;7749;49.964;7.890;2024-02-26T05:17:37;4.23;;;3.60;;
15295;SDS011;7749;49.964;7.890;2024-02-26T05:20:05;5.47;;;3.50;;
15295;SDS011;7749;49.964;7.890;2024-02-26T05:22:34;5.90;;;4.00;;
15295;SDS011;7749;49.964;7.890;2024-02-26T05:25:02;5.87;;;3.83;;
15295;SDS011;7749;49.964;7.890;2024-02-26T05:27:30;4.23;;;3.10;;
15295;SDS011;7749;49.964;7.890;2024-02-26T05:29:57;4.20;;;3.80;;
15295;SDS011;7749;49.964;7.890;2024-02-26T05:32:25;5.63;;;3.80;;
15295;SDS011;7749;49.964;7.890;2024-02-26T05:34:52;6.17;;;4.20;;
15295;SDS011;7749;49.964;7.890;2024-02-26T05:37:19;7.47;;;4.03;;
15295;SDS011;7749;49.964;7.890;2024-02-26T05:39:47;4.97;;;4.07;;
15295;SDS011;7749;49.964;7.890;2024-02-26T05:42:14;5.90;;;4.00;;
15295;SDS011;7749;49.964;7.890;2024-02-26T05:44:42;7.43;;;4.10;;
15295;SDS011;7749;49.964;7.890;2024-02-26T05:47:09;4.13;;;3.80;;
15295;SDS011;7749;49.964;7.890;2024-02-26T05:49:36;4.50;;;4.10;;
15295;SDS011;7749;49.964;7.890;2024-02-26T05:52:04;6.40;;;4.60;;
15295;SDS011;7749;49.964;7.890;2024-02-26T05:54:32;6.47;;;3.93;;
15295;SDS011;7749;49.964;7.890;2024-02-26T05:56:59;3.73;;;3.30;;
15295;SDS011;7749;49.964;7.890;2024-02-26T05:59:27;5.03;;;4.20;;
15295;SDS011;7749;49.964;7.890;2024-02-26T06:01:55;4.20;;;3.80;;
15295;SDS011;7749;49.964;7.890;2024-02-26T06:04:22;5.57;;;4.80;;
15295;SDS011;7749;49.964;7.890;2024-02-26T06:06:49;5.33;;;4.13;;
15295;SDS011;7749;49.964;7.890;2024-02-26T06:09:17;7.80;;;5.00;;
15295;SDS011;7749;49.964;7.890;2024-02-26T06:11:44;6.67;;;4.40;;
15295;SDS011;7749;49.964;7.890;2024-02-26T06:14:12;6.33;;;4.63;;
15295;SDS011;7749;49.964;7.890;2024-02-26T06:16:41;5.83;;;4.67;;
15295;SDS011;7749;49.964;7.890;2024-02-26T06:19:08;6.27;;;4.17;;
15295;SDS011;7749;49.964;7.890;2024-02-26T06:21:39;5.57;;;4.67;;
15295;SDS011;7749;49.964;7.890;2024-02-26T06:24:07;7.37;;;4.87;;
15295;SDS011;7749;49.964;7.890;2024-02-26T06:26:34;5.70;;;4.10;;
15295;SDS011;7749;49.964;7.890;2024-02-26T06:29:01;9.47;;;4.57;;
15295;SDS011;7749;49.964;7.890;2024-02-26T06:31:29;5.67;;;4.20;;
15295;SDS011;7749;49.964;7.890;2024-02-26T06:33:56;6.80;;;4.33;;
15295;SDS011;7749;49.964;7.890;2024-02-26T06:36:24;6.30;;;4.43;;
15295;SDS011;7749;49.964;7.890;2024-02-26T06:38:53;6.43;;;4.30;;
15295;SDS011;7749;49.964;7.890;2024-02-26T06:41:21;6.33;;;4.40;;
15295;SDS011;7749;49.964;7.890;2024-02-26T06:43:54;4.73;;;4.27;;
15295;SDS011;7749;49.964;7.890;2024-02-26T06:46:22;4.97;;;4.10;;
15295;SDS011;7749;49.964;7.890;2024-02-26T06:48:49;6.57;;;4.50;;
15295;SDS011;7749;49.964;7.890;2024-02-26T06:51:21;6.03;;;4.30;;
15295;SDS011;7749;49.964;7.890;2024-02-26T06:53:49;4.57;;;4.10;;
15295;SDS011;7749;49.964;7.890;2024-02-26T06:56:16;5.53;;;4.50;;
15295;SDS011;7749;49.964;7.890;2024-02-26T06:58:44;7.27;;;4.77;;
15295;SDS011;7749;49.964;7.890;2024-02-26T07:01:13;4.83;;;4.40;;
15295;SDS011;7749;49.964;7.890;2024-02-26T07:03:40;5.57;;;4.53;;
15295;SDS011;7749;49.964;7.890;2024-02-26T07:06:08;8.27;;;5.00;;
15295;SDS011;7749;49.964;7.890;2024-02-26T07:08:36;7.27;;;5.10;;
15295;SDS011;7749;49.964;7.890;2024-02-26T07:11:06;5.30;;;4.80;;
15295;SDS011;7749;49.964;7.890;2024-02-26T07:13:34;8.23;;;4.73;;
15295;SDS011;7749;49.964;7.890;2024-02-26T07:16:02;6.37;;;5.07;;
15295;SDS011;7749;49.964;7.890;2024-02-26T07:18:30;6.67;;;4.43;;
15295;SDS011;7749;49.964;7.890;2024-02-26T07:20:57;6.20;;;4.60;;
15295;SDS011;7749;49.964;7.890;2024-02-26T07:23:28;6.60;;;4.73;;
15295;SDS011;7749;49.964;7.890;2024-02-26T07:25:56;5.83;;;4.13;;
15295;SDS011;7749;49.964;7.890;2024-02-26T07:28:23;6.20;;;4.43;;
15295;SDS011;7749;49.964;7.890;2024-02-26T07:30:51;8.33;;;4.80;;
15295;SDS011;7749;49.964;7.890;2024-02-26T07:33:19;7.37;;;5.80;;
15295;SDS011;7749;49.964;7.890;2024-02-26T07:35:46;10.20;;;7.93;;
15295;SDS011;7749;49.964;7.890;2024-02-26T07:38:14;7.30;;;5.33;;
15295;SDS011;7749;49.964;7.890;2024-02-26T07:40:58;6.70;;;5.47;;
15295;SDS011;7749;49.964;7.890;2024-02-26T07:43:29;7.70;;;5.13;;
15295;SDS011;7749;49.964;7.890;2024-02-26T07:45:57;7.27;;;5.00;;
15295;SDS011;7749;49.964;7.890;2024-02-26T07:48:24;9.27;;;5.50;;
15295;SDS011;7749;49.964;7.890;2024-02-26T07:50:52;7.60;;;5.43;;
15295;SDS011;7749;49.964;7.890;2024-02-26T07:53:19;5.83;;;5.23;;
15295;SDS011;7749;49.964;7.890;2024-02-26T07:55:47;7.93;;;5.93;;
15295;SDS011;7749;49.964;7.890;2024-02-26T07:58:14;8.43;;;5.53;;
15295;SDS011;7749;49.964;7.890;2024-02-26T08:00:42;7.03;;;5.80;;
15295;SDS011;7749;49.964;7.890;2024-02-26T08:03:10;8.83;;;5.77;;
15295;SDS011;7749;49.964;7.890;2024-02-26T08:05:38;10.23;;;6.10;;
15295;SDS011;7749;49.964;7.890;2024-02-26T08:08:07;9.73;;;6.23;;
15295;SDS011;7749;49.964;7.890;2024-02-26T08:10:34;6.50;;;5.77;;
15295;SDS011;7749;49.964;7.890;2024-02-26T08:13:02;6.87;;;5.57;;
15295;SDS011;7749;49.964;7.890;2024-02-26T08:15:32;9.27;;;6.43;;
15295;SDS011;7749;49.964;7.890;2024-02-26T08:18:01;6.53;;;5.50;;
15295;SDS011;7749;49.964;7.890;2024-02-26T08:20:31;8.23;;;5.80;;
15295;SDS011;7749;49.964;7.890;2024-02-26T08:22:59;7.97;;;5.90;;
15295;SDS011;7749;49.964;7.890;2024-02-26T08:25:26;9.03;;;6.47;;
15295;SDS011;7749;49.964;7.890;2024-02-26T08:27:53;10.03;;;7.00;;
15295;SDS011;7749;49.964;7.890;2024-02-26T08:30:21;7.87;;;6.53;;
15295;SDS011;7749;49.964;7.890;2024-02-26T08:32:48;8.07;;;6.43;;
15295;SDS011;7749;49.964;7.890;2024-02-26T08:35:18;7.30;;;6.60;;
15295;SDS011;7749;49.964;7.890;2024-02-26T08:37:46;8.33;;;6.20;;
15295;SDS011;7749;49.964;7.890;2024-02-26T08:40:14;9.73;;;7.33;;
15295;SDS011;7749;49.964;7.890;2024-02-26T08:42:42;7.23;;;6.23;;
15295;SDS011;7749;49.964;7.890;2024-02-26T08:45:09;7.33;;;6.07;;
15295;SDS011;7749;49.964;7.890;2024-02-26T08:47:38;7.43;;;6.50;;
15295;SDS011;7749;49.964;7.890;2024-02-26T08:50:06;10.23;;;7.00;;
15295;SDS011;7749;49.964;7.890;2024-02-26T08:52:33;8.40;;;6.87;;
15295;SDS011;7749;49.964;7.890;2024-02-26T08:55:01;8.93;;;6.47;;
15295;SDS011;7749;49.964;7.890;2024-02-26T08:57:29;9.37;;;6.70;;
15295;SDS011;7749;49.964;7.890;2024-02-26T09:00:00;9.93;;;6.70;;
15295;SDS011;7749;49.964;7.890;2024-02-26T09:02:28;9.17;;;6.80;;
15295;SDS011;7749;49.964;7.890;2024-02-26T09:04:56;10.80;;;6.97;;
15295;SDS011;7749;49.964;7.890;2024-02-26T09:07:24;9.57;;;7.33;;
15295;SDS011;7749;49.964;7.890;2024-02-26T09:09:51;10.67;;;7.37;;
15295;SDS011;7749;49.964;7.890;2024-02-26T09:12:18;9.73;;;6.80;;
15295;SDS011;7749;49.964;7.890;2024-02-26T09:14:46;8.83;;;6.63;;
15295;SDS011;7749;49.964;7.890;2024-02-26T09:17:14;8.57;;;6.63;;
15295;SDS011;7749;49.964;7.890;2024-02-26T09:19:41;9.53;;;6.83;;
15295;SDS011;7749;49.964;7.890;2024-02-26T09:22:10;7.67;;;6.23;;
15295;SDS011;7749;49.964;7.890;2024-02-26T09:24:39;8.47;;;6.30;;
15295;SDS011;7749;49.964;7.890;2024-02-26T09:27:06;8.50;;;6.77;;
15295;SDS011;7749;49.964;7.890;2024-02-26T09:29:35;8.43;;;6.90;;
15295;SDS011;7749;49.964;7.890;2024-02-26T09:32:03;8.77;;;6.20;;
15295;SDS011;7749;49.964;7.890;2024-02-26T09:34:31;10.80;;;7.63;;
15295;SDS011;7749;49.964;7.890;2024-02-26T09:36:59;9.83;;;6.60;;
15295;SDS011;7749;49.964;7.890;2024-02-26T09:39:41;8.93;;;6.70;;
15295;SDS011;7749;49.964;7.890;2024-02-26T09:42:09;8.37;;;6.50;;
15295;SDS011;7749;49.964;7.890;2024-02-26T09:44:40;10.23;;;5.97;;
15295;SDS011;7749;49.964;7.890;2024-02-26T09:47:09;7.23;;;5.63;;
15295;SDS011;7749;49.964;7.890;2024-02-26T09:49:40;7.80;;;7.00;;
15295;SDS011;7749;49.964;7.890;2024-02-26T09:52:08;7.53;;;6.43;;
15295;SDS011;7749;49.964;7.890;2024-02-26T09:54:38;8.40;;;6.60;;
15295;SDS011;7749;49.964;7.890;2024-02-26T09:57:06;10.13;;;6.47;;
15295;SDS011;7749;49.964;7.890;2024-02-26T09:59:42;7.77;;;6.07;;
15295;SDS011;7749;49.964;7.890;2024-02-26T10:02:13;7.80;;;6.60;;
15295;SDS011;7749;49.964;7.890;2024-02-26T10:04:42;11.37;;;6.00;;
15295;SDS011;7749;49.964;7.890;2024-02-26T10:07:16;7.43;;;5.87;;
15295;SDS011;7749;49.964;7.890;2024-02-26T10:09:44;8.07;;;5.93;;
15295;SDS011;7749;49.964;7.890;2024-02-26T10:12:12;7.23;;;5.20;;
15295;SDS011;7749;49.964;7.890;2024-02-26T10:14:40;6.10;;;4.67;;
15295;SDS011;7749;49.964;7.890;2024-02-26T10:17:07;7.77;;;6.37;;
15295;SDS011;7749;49.964;7.890;2024-02-26T10:19:35;6.50;;;5.53;;
15295;SDS011;7749;49.964;7.890;2024-02-26T10:22:05;7.77;;;5.77;;
15295;SDS011;7749;49.964;7.890;2024-02-26T10:24:33;7.03;;;6.33;;
15295;SDS011;7749;49.964;7.890;2024-02-26T10:27:02;7.00;;;6.17;;
15295;SDS011;7749;49.964;7.890;2024-02-26T10:29:31;8.97;;;6.00;;
15295;SDS011;7749;49.964;7.890;2024-02-26T10:31:58;7.97;;;6.03;;
15295;SDS011;7749;49.964;7.890;2024-02-26T10:34:25;7.00;;;5.70;;
15295;SDS011;7749;49.964;7.890;2024-02-26T10:36:53;7.87;;;7.07;;
15295;SDS011;7749;49.964;7.890;2024-02-26T10:39:21;7.47;;;6.23;;
15295;SDS011;7749;49.964;7.890;2024-02-26T10:41:49;8.00;;;7.20;;
15295;SDS011;7749;49.964;7.890;2024-02-26T10:44:17;8.83;;;7.00;;
15295;SDS011;7749;49.964;7.890;2024-02-26T10:46:49;9.87;;;7.30;;
15295;SDS011;7749;49.964;7.890;2024-02-26T10:49:17;9.73;;;7.03;;
15295;SDS011;7749;49.964;7.890;2024-02-26T10:51:50;10.37;;;7.33;;
15295;SDS011;7749;49.964;7.890;2024-02-26T10:54:27;10.00;;;7.77;;
15295;SDS011;7749;49.964;7.890;2024-02-26T10:56:57;11.37;;;8.43;;
15295;SDS011;7749;49.964;7.890;2024-02-26T10:59:27;8.87;;;7.83;;
15295;SDS011;7749;49.964;7.890;2024-02-26T11:01:56;8.07;;;7.20;;
15295;SDS011;7749;49.964;7.890;2024-02-26T11:04:24;9.40;;;6.90;;
15295;SDS011;7749;49.964;7.890;2024-02-26T11:06:54;7.53;;;6.73;;
15295;SDS011;7749;49.964;7.890;2024-02-26T11:09:24;9.07;;;7.10;;
15295;SDS011;7749;49.964;7.890;2024-02-26T11:11:53;7.90;;;7.13;;
15295;SDS011;7749;49.964;7.890;2024-02-26T11:14:22;9.93;;;7.87;;
15295;SDS011;7749;49.964;7.890;2024-02-26T11:16:54;8.10;;;6.57;;
15295;SDS011;7749;49.964;7.890;2024-02-26T11:19:24;7.33;;;6.60;;
15295;SDS011;7749;49.964;7.890;2024-02-26T11:21:52;7.87;;;7.07;;
15295;SDS011;7749;49.964;7.890;2024-02-26T11:24:19;8.13;;;6.33;;
15295;SDS011;7749;49.964;7.890;2024-02-26T11:26:49;7.57;;;6.20;;
15295;SDS011;7749;49.964;7.890;2024-02-26T11:29:27;7.17;;;5.63;;
15295;SDS011;7749;49.964;7.890;2024-02-26T11:31:59;8.37;;;6.37;;
15295;SDS011;7749;49.964;7.890;2024-02-26T11:34:27;8.33;;;6.30;;
15295;SDS011;7749;49.964;7.890;2024-02-26T11:36:55;7.50;;;6.53;;
15295;SDS011;7749;49.964;7.890;2024-02-26T11:39:23;7.80;;;6.43;;
15295;SDS011;7749;49.964;7.890;2024-02-26T11:41:52;8.17;;;7.30;;
15295;SDS011;7749;49.964;7.890;2024-02-26T11:44:30;11.00;;;7.57;;
15295;SDS011;7749;49.964;7.890;2024-02-26T11:46:57;7.80;;;7.00;;
15295;SDS011;7749;49.964;7.890;2024-02-26T11:49:29;10.10;;;7.50;;
15295;SDS011;7749;49.964;7.890;2024-02-26T11:51:58;11.97;;;7.43;;
15295;SDS011;7749;49.964;7.890;2024-02-26T11:57:21;7.63;;;6.60;;
15295;SDS011;7749;49.964;7.890;2024-02-26T12:02:45;9.17;;;6.53;;
15295;SDS011;7749;49.964;7.890;2024-02-26T12:07:46;6.77;;;5.70;;
15295;SDS011;7749;49.964;7.890;2024-02-26T12:12:42;8.27;;;6.37;;
15295;SDS011;7749;49.964;7.890;2024-02-26T12:15:10;6.63;;;5.60;;
15295;SDS011;7749;49.964;7.890;2024-02-26T12:17:38;7.63;;;6.70;;
15295;SDS011;7749;49.964;7.890;2024-02-26T12:20:09;6.77;;;6.00;;
15295;SDS011;7749;49.964;7.890;2024-02-26T12:22:39;6.43;;;5.10;;
15295;SDS011;7749;49.964;7.890;2024-02-26T12:25:10;7.23;;;5.83;;
15295;SDS011;7749;49.964;7.890;2024-02-26T12:27:38;7.63;;;5.80;;
15295;SDS011;7749;49.964;7.890;2024-02-26T12:30:05;7.03;;;5.57;;
15295;SDS011;7749;49.964;7.890;2024-02-26T12:32:34;5.97;;;5.37;;
15295;SDS011;7749;49.964;7.890;2024-02-26T12:35:03;5.80;;;5.17;;
15295;SDS011;7749;49.964;7.890;2024-02-26T12:37:32;6.43;;;4.93;;
15295;SDS011;7749;49.964;7.890;2024-02-26T12:39:59;6.63;;;4.67;;
15295;SDS011;7749;49.964;7.890;2024-02-26T12:42:27;4.93;;;4.23;;
15295;SDS011;7749;49.964;7.890;2024-02-26T12:44:54;5.10;;;4.60;;
15295;SDS011;7749;49.964;7.890;2024-02-26T12:47:22;4.97;;;4.47;;
15295;SDS011;7749;49.964;7.890;2024-02-26T12:49:50;6.27;;;4.80;;
15295;SDS011;7749;49.964;7.890;2024-02-26T12:52:17;5.37;;;4.70;;
15295;SDS011;7749;49.964;7.890;2024-02-26T12:54:44;5.37;;;4.20;;
15295;SDS011;7749;49.964;7.890;2024-02-26T12:57:12;4.90;;;4.40;;
15295;SDS011;7749;49.964;7.890;2024-02-26T12:59:40;6.73;;;4.50;;
15295;SDS011;7749;49.964;7.890;2024-02-26T13:02:07;4.83;;;4.30;;
15295;SDS011;7749;49.964;7.890;2024-02-26T13:04:35;5.20;;;4.53;;
15295;SDS011;7749;49.964;7.890;2024-02-26T13:07:04;4.77;;;4.33;;
15295;SDS011;7749;49.964;7.890;2024-02-26T13:09:32;5.32;;;4.07;;
15295;SDS011;7749;49.964;7.890;2024-02-26T13:12:04;4.60;;;4.20;;
15295;SDS011;7749;49.964;7.890;2024-02-26T13:14:33;4.38;;;3.97;;
15295;SDS011;7749;49.964;7.890;2024-02-26T13:17:01;4.45;;;3.25;;
15295;SDS011;7749;49.964;7.890;2024-02-26T13:19:29;5.57;;;4.00;;
15295;SDS011;7749;49.964;7.890;2024-02-26T13:22:06;4.50;;;3.58;;
15295;SDS011;7749;49.964;7.890;2024-02-26T13:24:34;3.80;;;3.50;;
15295;SDS011;7749;49.964;7.890;2024-02-26T13:27:02;5.00;;;4.47;;
15295;SDS011;7749;49.964;7.890;2024-02-26T13:29:32;4.78;;;4.28;;
15295;SDS011;7749;49.964;7.890;2024-02-26T13:32:00;4.38;;;3.97;;
15295;SDS011;7749;49.964;7.890;2024-02-26T13:34:28;4.90;;;3.85;;
15295;SDS011;7749;49.964;7.890;2024-02-26T13:36:57;6.45;;;4.22;;
15295;SDS011;7749;49.964;7.890;2024-02-26T13:39:25;7.65;;;4.15;;
15295;SDS011;7749;49.964;7.890;2024-02-26T13:41:54;4.53;;;3.67;;
15295;SDS011;7749;49.964;7.890;2024-02-26T13:44:23;5.27;;;4.50;;
15295;SDS011;7749;49.964;7.890;2024-02-26T13:46:51;5.37;;;4.40;;
15295;SDS011;7749;49.964;7.890;2024-02-26T13:49:18;4.90;;;4.40;;
15295;SDS011;7749;49.964;7.890;2024-02-26T13:51:46;9.13;;;4.60;;
15295;SDS011;7749;49.964;7.890;2024-02-26T13:54:13;4.87;;;4.30;;
15295;SDS011;7749;49.964;7.890;2024-02-26T13:56:42;7.43;;;4.50;;
15295;SDS011;7749;49.964;7.890;2024-02-26T13:59:14;4.47;;;4.00;;
15295;SDS011;7749;49.964;7.890;2024-02-26T14:01:42;4.47;;;4.07;;
15295;SDS011;7749;49.964;7.890;2024-02-26T14:04:09;5.90;;;4.40;;
15295;SDS011;7749;49.964;7.890;2024-02-26T14:06:37;5.67;;;4.43;;
15295;SDS011;7749;49.964;7.890;2024-02-26T14:09:06;7.03;;;4.37;;
15295;SDS011;7749;49.964;7.890;2024-02-26T14:11:33;6.30;;;3.97;;
15295;SDS011;7749;49.964;7.890;2024-02-26T14:14:01;6.33;;;4.60;;
15295;SDS011;7749;49.964;7.890;2024-02-26T14:16:29;6.03;;;4.73;;
15295;SDS011;7749;49.964;7.890;2024-02-26T14:18:58;4.60;;;4.03;;
15295;SDS011;7749;49.964;7.890;2024-02-26T14:21:26;5.17;;;3.83;;
15295;SDS011;7749;49.964;7.890;2024-02-26T14:23:54;6.40;;;4.20;;
15295;SDS011;7749;49.964;7.890;2024-02-26T14:26:22;6.43;;;4.20;;
15295;SDS011;7749;49.964;7.890;2024-02-26T14:28:50;5.57;;;4.50;;
15295;SDS011;7749;49.964;7.890;2024-02-26T14:31:18;5.77;;;4.37;;
15295;SDS011;7749;49.964;7.890;2024-02-26T14:33:45;4.67;;;4.03;;
15295;SDS011;7749;49.964;7.890;2024-02-26T14:36:13;5.47;;;4.50;;
15295;SDS011;7749;49.964;7.890;2024-02-26T14:38:41;6.43;;;4.60;;
15295;SDS011;7749;49.964;7.890;2024-02-26T14:41:09;5.10;;;4.60;;
15295;SDS011;7749;49.964;7.890;2024-02-26T14:43:37;5.53;;;4.20;;
15295;SDS011;7749;49.964;7.890;2024-02-26T14:46:04;5.60;;;4.93;;
15295;SDS011;7749;49.964;7.890;2024-02-26T14:48:32;5.23;;;4.70;;
15295;SDS011;7749;49.964;7.890;2024-02-26T14:51:00;5.47;;;4.63;;
15295;SDS011;7749;49.964;7.890;2024-02-26T14:53:28;6.93;;;4.53;;
15295;SDS011;7749;49.964;7.890;2024-02-26T14:55:55;5.20;;;4.30;;
15295;SDS011;7749;49.964;7.890;2024-02-26T14:58:23;5.03;;;3.77;;
15295;SDS011;7749;49.964;7.890;2024-02-26T15:00:51;8.00;;;3.90;;
15295;SDS011;7749;49.964;7.890;2024-02-26T15:03:18;6.03;;;3.70;;
15295;SDS011;7749;49.964;7.890;2024-02-26T15:05:46;4.03;;;3.60;;
15295;SDS011;7749;49.964;7.890;2024-02-26T15:08:13;6.87;;;3.93;;
15295;SDS011;7749;49.964;7.890;2024-02-26T15:10:43;8.20;;;4.13;;
15295;SDS011;7749;49.964;7.890;2024-02-26T15:13:15;5.30;;;4.00;;
15295;SDS011;7749;49.964;7.890;2024-02-26T15:15:44;4.73;;;4.03;;
15295;SDS011;7749;49.964;7.890;2024-02-26T15:18:12;5.70;;;4.50;;